Airfield :
LOGIN :

Register | Disclaimer

   EN    FR    IT 

 










Legend :    VFR   Marginal VFR   IFR   Intensive IFR   Very Intensive IFR
Visi :
Ceiling :
>= 8 km
>= 3000ft
5 to 8 km
1000 to 3000 ft
1500m to 5 km
500 to 1000 ft
800 to 1500m
200 to 500 ft
< 800m
< 200 ft
Symbols :   Thunderstorms  Fog  Heavy snow  Heavy precipitations  Wind > 20 kt
SIGMETs :     Misc.  Thunderstorms  Icing  Turbulence  Mountain Waves  Volcanic Ashes






- Airport Elevation : -15 ft
- IATA code : RTM


EHRD - Rotterdam Zestienhoven

CURRENT METAR :
  • 210355Z AUTO 32001KT 2300 BR NSC 05/04 Q1017 TEMPO 4000

EXPIRED METARs :
  • 210325Z AUTO 31002KT 3000 BR FEW015CB 05/05 Q1017 TEMPO 2000 MIFG
  • 210255Z AUTO 32002KT 0700 R06/P2000N BR FEW015CB 05/04 Q1017 TEMPO 6000 NSW
  • 210225Z AUTO 29003KT 2700 BR FEW015CB 05/05 Q1017 BECMG 4000
  • 210155Z AUTO 28002KT 1000 R06/P2000N BR FEW015CB 05/05 Q1017 BECMG 4000 BR
  • 210125Z AUTO 30002KT 0900 R06/0800N FG FEW015CB 05/05 Q1017 TEMPO 4000 MIFG

TAF TAF EHRD
Valid from the 21 at 00:00 until the 22 at 06:00 UTC


202319Z 2100/2206 36004KT 4000 BR MIFG NSC
PROB30 2100/2106 1400 BCFG
BECMG 2106/2108 9999 NSW SCT030
BECMG 2109/2112 03012KT
PROB30
TEMPO 2109/2112 SCT008 BKN012
BECMG 2118/2121 01005KT CAVOK



MET'MAP, your aeronautical weather chart ! - Copyright ORBIFLY December 2007 - Disclaimer

ORBIFLY MET'MAP TEAM :

Programming & Development : Alexandra Zaïnal
Concept & original design : Baudouin d'Aumeries
Assistance for programming : Marc-Olivier Méhu
Technical & hardware support : Manuel Goepfert

Contact : metmap@orbifly.com




SOURCES & CREDITS :

   NOAA